sensor_id;sensor_type;location;lat;lon;timestamp;P1;durP1;ratioP1;P2;durP2;ratioP2
19804;SDS011;10062;51.052;13.756;2023-07-13T00:01:16;11.63;;;4.45;;
19804;SDS011;10062;51.052;13.756;2023-07-13T00:03:48;6.10;;;2.42;;
19804;SDS011;10062;51.052;13.756;2023-07-13T00:06:20;4.43;;;2.25;;
19804;SDS011;10062;51.052;13.756;2023-07-13T00:08:51;5.07;;;2.42;;
19804;SDS011;10062;51.052;13.756;2023-07-13T00:11:24;3.92;;;1.80;;
19804;SDS011;10062;51.052;13.756;2023-07-13T00:13:56;3.47;;;1.60;;
19804;SDS011;10062;51.052;13.756;2023-07-13T00:16:28;4.00;;;1.98;;
19804;SDS011;10062;51.052;13.756;2023-07-13T00:18:59;4.10;;;1.75;;
19804;SDS011;10062;51.052;13.756;2023-07-13T00:21:31;3.65;;;1.80;;
19804;SDS011;10062;51.052;13.756;2023-07-13T00:24:03;5.05;;;1.98;;
19804;SDS011;10062;51.052;13.756;2023-07-13T00:26:37;4.60;;;2.17;;
19804;SDS011;10062;51.052;13.756;2023-07-13T00:29:09;3.28;;;1.60;;
19804;SDS011;10062;51.052;13.756;2023-07-13T00:31:41;3.50;;;1.80;;
19804;SDS011;10062;51.052;13.756;2023-07-13T00:34:14;3.20;;;1.75;;
19804;SDS011;10062;51.052;13.756;2023-07-13T00:36:45;2.88;;;1.52;;
19804;SDS011;10062;51.052;13.756;2023-07-13T00:39:17;4.53;;;1.95;;
19804;SDS011;10062;51.052;13.756;2023-07-13T00:41:52;4.30;;;1.65;;
19804;SDS011;10062;51.052;13.756;2023-07-13T00:44:24;4.13;;;2.22;;
19804;SDS011;10062;51.052;13.756;2023-07-13T00:46:56;3.53;;;1.90;;
19804;SDS011;10062;51.052;13.756;2023-07-13T00:49:29;4.87;;;1.93;;
19804;SDS011;10062;51.052;13.756;2023-07-13T00:52:04;5.07;;;1.87;;
19804;SDS011;10062;51.052;13.756;2023-07-13T00:54:40;6.33;;;2.10;;
19804;SDS011;10062;51.052;13.756;2023-07-13T00:57:17;3.60;;;1.70;;
19804;SDS011;10062;51.052;13.756;2023-07-13T00:59:52;4.07;;;1.90;;
19804;SDS011;10062;51.052;13.756;2023-07-13T01:02:28;4.43;;;1.80;;
19804;SDS011;10062;51.052;13.756;2023-07-13T01:05:00;4.63;;;1.90;;
19804;SDS011;10062;51.052;13.756;2023-07-13T01:07:32;3.70;;;2.10;;
19804;SDS011;10062;51.052;13.756;2023-07-13T01:10:04;6.30;;;2.77;;
19804;SDS011;10062;51.052;13.756;2023-07-13T01:12:38;4.20;;;2.07;;
19804;SDS011;10062;51.052;13.756;2023-07-13T01:18:14;3.30;;;1.80;;
19804;SDS011;10062;51.052;13.756;2023-07-13T01:20:53;3.80;;;2.20;;
19804;SDS011;10062;51.052;13.756;2023-07-13T01:23:26;4.20;;;2.33;;
19804;SDS011;10062;51.052;13.756;2023-07-13T01:25:59;3.90;;;1.97;;
19804;SDS011;10062;51.052;13.756;2023-07-13T01:28:31;3.77;;;2.23;;
19804;SDS011;10062;51.052;13.756;2023-07-13T01:31:07;3.13;;;2.03;;
19804;SDS011;10062;51.052;13.756;2023-07-13T01:33:39;3.33;;;1.93;;
19804;SDS011;10062;51.052;13.756;2023-07-13T01:36:13;5.87;;;2.43;;
19804;SDS011;10062;51.052;13.756;2023-07-13T01:38:44;5.70;;;2.20;;
19804;SDS011;10062;51.052;13.756;2023-07-13T01:41:16;7.47;;;2.30;;
19804;SDS011;10062;51.052;13.756;2023-07-13T01:43:50;8.20;;;2.73;;
19804;SDS011;10062;51.052;13.756;2023-07-13T01:46:21;5.30;;;2.20;;
19804;SDS011;10062;51.052;13.756;2023-07-13T01:48:54;5.10;;;2.20;;
19804;SDS011;10062;51.052;13.756;2023-07-13T01:51:28;3.93;;;2.00;;
19804;SDS011;10062;51.052;13.756;2023-07-13T01:54:00;8.33;;;2.40;;
19804;SDS011;10062;51.052;13.756;2023-07-13T01:56:31;8.70;;;2.37;;
19804;SDS011;10062;51.052;13.756;2023-07-13T01:59:03;6.67;;;2.37;;
19804;SDS011;10062;51.052;13.756;2023-07-13T02:01:35;6.50;;;2.50;;
19804;SDS011;10062;51.052;13.756;2023-07-13T02:04:07;6.07;;;2.13;;
19804;SDS011;10062;51.052;13.756;2023-07-13T02:06:42;6.23;;;2.60;;
19804;SDS011;10062;51.052;13.756;2023-07-13T02:09:14;3.87;;;2.10;;
19804;SDS011;10062;51.052;13.756;2023-07-13T02:11:45;4.97;;;2.40;;
19804;SDS011;10062;51.052;13.756;2023-07-13T02:14:18;4.97;;;2.17;;
19804;SDS011;10062;51.052;13.756;2023-07-13T02:16:50;5.00;;;2.93;;
19804;SDS011;10062;51.052;13.756;2023-07-13T02:19:22;7.93;;;2.83;;
19804;SDS011;10062;51.052;13.756;2023-07-13T02:21:55;4.50;;;2.70;;
19804;SDS011;10062;51.052;13.756;2023-07-13T02:24:27;5.03;;;3.00;;
19804;SDS011;10062;51.052;13.756;2023-07-13T02:26:59;5.13;;;2.33;;
19804;SDS011;10062;51.052;13.756;2023-07-13T02:29:31;6.90;;;2.47;;
19804;SDS011;10062;51.052;13.756;2023-07-13T02:32:02;5.63;;;2.20;;
19804;SDS011;10062;51.052;13.756;2023-07-13T02:34:35;5.53;;;2.90;;
19804;SDS011;10062;51.052;13.756;2023-07-13T02:37:09;4.73;;;2.53;;
19804;SDS011;10062;51.052;13.756;2023-07-13T02:39:41;5.63;;;2.70;;
19804;SDS011;10062;51.052;13.756;2023-07-13T02:42:13;7.83;;;2.73;;
19804;SDS011;10062;51.052;13.756;2023-07-13T02:44:44;3.93;;;2.40;;
19804;SDS011;10062;51.052;13.756;2023-07-13T02:47:16;9.13;;;3.13;;
19804;SDS011;10062;51.052;13.756;2023-07-13T02:49:48;7.20;;;3.00;;
19804;SDS011;10062;51.052;13.756;2023-07-13T02:52:21;5.83;;;2.70;;
19804;SDS011;10062;51.052;13.756;2023-07-13T02:54:52;4.73;;;2.30;;
19804;SDS011;10062;51.052;13.756;2023-07-13T02:57:24;5.67;;;2.90;;
19804;SDS011;10062;51.052;13.756;2023-07-13T02:59:57;6.73;;;2.83;;
19804;SDS011;10062;51.052;13.756;2023-07-13T03:02:29;6.33;;;2.63;;
19804;SDS011;10062;51.052;13.756;2023-07-13T03:05:02;5.70;;;2.90;;
19804;SDS011;10062;51.052;13.756;2023-07-13T03:07:37;7.43;;;3.10;;
19804;SDS011;10062;51.052;13.756;2023-07-13T03:10:09;3.23;;;2.00;;
19804;SDS011;10062;51.052;13.756;2023-07-13T03:12:47;6.57;;;2.63;;
19804;SDS011;10062;51.052;13.756;2023-07-13T03:15:26;3.73;;;2.50;;
19804;SDS011;10062;51.052;13.756;2023-07-13T03:18:00;5.73;;;2.20;;
19804;SDS011;10062;51.052;13.756;2023-07-13T03:20:32;6.13;;;2.40;;
19804;SDS011;10062;51.052;13.756;2023-07-13T03:23:06;3.67;;;2.37;;
19804;SDS011;10062;51.052;13.756;2023-07-13T03:25:38;5.40;;;2.60;;
19804;SDS011;10062;51.052;13.756;2023-07-13T03:28:10;8.90;;;2.60;;
19804;SDS011;10062;51.052;13.756;2023-07-13T03:30:42;5.20;;;2.67;;
19804;SDS011;10062;51.052;13.756;2023-07-13T03:33:14;6.17;;;2.60;;
19804;SDS011;10062;51.052;13.756;2023-07-13T03:35:45;5.57;;;2.30;;
19804;SDS011;10062;51.052;13.756;2023-07-13T03:38:18;4.47;;;2.37;;
19804;SDS011;10062;51.052;13.756;2023-07-13T03:40:51;5.57;;;2.20;;
19804;SDS011;10062;51.052;13.756;2023-07-13T03:43:23;5.37;;;2.40;;
19804;SDS011;10062;51.052;13.756;2023-07-13T03:45:56;7.60;;;2.70;;
19804;SDS011;10062;51.052;13.756;2023-07-13T03:48:28;6.40;;;2.80;;
19804;SDS011;10062;51.052;13.756;2023-07-13T03:51:00;3.73;;;2.60;;
19804;SDS011;10062;51.052;13.756;2023-07-13T03:53:35;6.57;;;3.20;;
19804;SDS011;10062;51.052;13.756;2023-07-13T03:56:07;5.53;;;2.50;;
19804;SDS011;10062;51.052;13.756;2023-07-13T03:58:40;5.97;;;2.43;;
19804;SDS011;10062;51.052;13.756;2023-07-13T04:01:19;4.57;;;2.50;;
19804;SDS011;10062;51.052;13.756;2023-07-13T04:03:52;6.33;;;2.30;;
19804;SDS011;10062;51.052;13.756;2023-07-13T04:06:27;8.67;;;2.83;;
19804;SDS011;10062;51.052;13.756;2023-07-13T04:09:02;4.70;;;2.33;;
19804;SDS011;10062;51.052;13.756;2023-07-13T04:11:35;8.97;;;3.70;;
19804;SDS011;10062;51.052;13.756;2023-07-13T04:14:10;9.43;;;4.93;;
19804;SDS011;10062;51.052;13.756;2023-07-13T04:16:42;7.47;;;3.73;;
19804;SDS011;10062;51.052;13.756;2023-07-13T04:19:15;10.10;;;3.77;;
19804;SDS011;10062;51.052;13.756;2023-07-13T04:21:47;7.63;;;3.93;;
19804;SDS011;10062;51.052;13.756;2023-07-13T04:24:20;11.00;;;5.17;;
19804;SDS011;10062;51.052;13.756;2023-07-13T04:26:52;12.00;;;6.93;;
19804;SDS011;10062;51.052;13.756;2023-07-13T04:29:23;7.97;;;4.43;;
19804;SDS011;10062;51.052;13.756;2023-07-13T04:31:55;8.60;;;3.70;;
19804;SDS011;10062;51.052;13.756;2023-07-13T04:34:27;7.60;;;3.63;;
19804;SDS011;10062;51.052;13.756;2023-07-13T04:36:58;6.70;;;3.90;;
19804;SDS011;10062;51.052;13.756;2023-07-13T04:39:31;9.80;;;4.07;;
19804;SDS011;10062;51.052;13.756;2023-07-13T04:42:03;5.73;;;3.53;;
19804;SDS011;10062;51.052;13.756;2023-07-13T04:44:35;8.33;;;3.60;;
19804;SDS011;10062;51.052;13.756;2023-07-13T04:47:07;5.30;;;2.73;;
19804;SDS011;10062;51.052;13.756;2023-07-13T04:49:38;6.27;;;2.73;;
19804;SDS011;10062;51.052;13.756;2023-07-13T04:52:11;6.43;;;3.03;;
19804;SDS011;10062;51.052;13.756;2023-07-13T04:54:44;11.43;;;3.10;;
19804;SDS011;10062;51.052;13.756;2023-07-13T04:57:15;5.13;;;2.50;;
19804;SDS011;10062;51.052;13.756;2023-07-13T04:59:47;6.30;;;2.63;;
19804;SDS011;10062;51.052;13.756;2023-07-13T05:02:20;6.93;;;2.70;;
19804;SDS011;10062;51.052;13.756;2023-07-13T05:04:51;5.80;;;2.73;;
19804;SDS011;10062;51.052;13.756;2023-07-13T05:07:23;6.83;;;2.80;;
19804;SDS011;10062;51.052;13.756;2023-07-13T05:09:57;5.50;;;2.20;;
19804;SDS011;10062;51.052;13.756;2023-07-13T05:12:28;4.17;;;2.40;;
19804;SDS011;10062;51.052;13.756;2023-07-13T05:15:00;7.23;;;2.40;;
19804;SDS011;10062;51.052;13.756;2023-07-13T05:17:33;4.40;;;2.17;;
19804;SDS011;10062;51.052;13.756;2023-07-13T05:20:05;2.80;;;1.97;;
19804;SDS011;10062;51.052;13.756;2023-07-13T05:22:37;3.70;;;2.20;;
19804;SDS011;10062;51.052;13.756;2023-07-13T05:25:10;6.10;;;2.73;;
19804;SDS011;10062;51.052;13.756;2023-07-13T05:27:42;6.20;;;2.33;;
19804;SDS011;10062;51.052;13.756;2023-07-13T05:30:15;5.07;;;2.13;;
19804;SDS011;10062;51.052;13.756;2023-07-13T05:32:47;4.13;;;2.10;;
19804;SDS011;10062;51.052;13.756;2023-07-13T05:35:18;5.53;;;2.20;;
19804;SDS011;10062;51.052;13.756;2023-07-13T05:37:50;3.23;;;2.00;;
19804;SDS011;10062;51.052;13.756;2023-07-13T05:40:23;7.00;;;2.23;;
19804;SDS011;10062;51.052;13.756;2023-07-13T05:42:55;4.43;;;1.97;;
19804;SDS011;10062;51.052;13.756;2023-07-13T05:45:26;6.90;;;2.63;;
19804;SDS011;10062;51.052;13.756;2023-07-13T05:47:58;3.33;;;2.03;;
19804;SDS011;10062;51.052;13.756;2023-07-13T05:50:30;5.87;;;2.40;;
19804;SDS011;10062;51.052;13.756;2023-07-13T05:53:02;3.03;;;1.80;;
19804;SDS011;10062;51.052;13.756;2023-07-13T05:55:35;6.97;;;2.20;;
19804;SDS011;10062;51.052;13.756;2023-07-13T05:58:11;4.23;;;2.40;;
19804;SDS011;10062;51.052;13.756;2023-07-13T06:00:43;4.77;;;2.60;;
19804;SDS011;10062;51.052;13.756;2023-07-13T06:03:15;6.13;;;2.60;;
19804;SDS011;10062;51.052;13.756;2023-07-13T06:05:46;6.53;;;2.63;;
19804;SDS011;10062;51.052;13.756;2023-07-13T06:08:18;6.13;;;2.33;;
19804;SDS011;10062;51.052;13.756;2023-07-13T06:10:51;5.33;;;2.63;;
19804;SDS011;10062;51.052;13.756;2023-07-13T06:13:23;7.27;;;2.83;;
19804;SDS011;10062;51.052;13.756;2023-07-13T06:15:55;6.47;;;2.70;;
19804;SDS011;10062;51.052;13.756;2023-07-13T06:18:26;6.13;;;2.93;;
19804;SDS011;10062;51.052;13.756;2023-07-13T06:20:58;6.00;;;2.40;;
19804;SDS011;10062;51.052;13.756;2023-07-13T06:23:30;9.97;;;2.40;;
19804;SDS011;10062;51.052;13.756;2023-07-13T06:26:03;3.97;;;2.50;;
19804;SDS011;10062;51.052;13.756;2023-07-13T06:28:35;6.47;;;2.77;;
19804;SDS011;10062;51.052;13.756;2023-07-13T06:31:10;5.90;;;2.20;;
19804;SDS011;10062;51.052;13.756;2023-07-13T06:33:43;6.40;;;2.43;;
19804;SDS011;10062;51.052;13.756;2023-07-13T06:36:15;7.17;;;2.87;;
19804;SDS011;10062;51.052;13.756;2023-07-13T06:38:47;7.80;;;3.13;;
19804;SDS011;10062;51.052;13.756;2023-07-13T06:41:20;6.27;;;2.87;;
19804;SDS011;10062;51.052;13.756;2023-07-13T06:43:52;6.13;;;2.90;;
19804;SDS011;10062;51.052;13.756;2023-07-13T06:46:24;7.20;;;2.45;;
19804;SDS011;10062;51.052;13.756;2023-07-13T06:48:56;6.50;;;2.37;;
19804;SDS011;10062;51.052;13.756;2023-07-13T06:51:28;7.88;;;2.60;;
19804;SDS011;10062;51.052;13.756;2023-07-13T06:53:59;7.85;;;3.65;;
19804;SDS011;10062;51.052;13.756;2023-07-13T06:56:32;4.75;;;2.40;;
19804;SDS011;10062;51.052;13.756;2023-07-13T06:59:04;20.52;;;3.63;;
19804;SDS011;10062;51.052;13.756;2023-07-13T07:01:36;9.80;;;5.65;;
19804;SDS011;10062;51.052;13.756;2023-07-13T07:04:07;5.97;;;2.60;;
19804;SDS011;10062;51.052;13.756;2023-07-13T07:06:39;5.65;;;2.08;;
19804;SDS011;10062;51.052;13.756;2023-07-13T07:09:11;11.68;;;6.03;;
19804;SDS011;10062;51.052;13.756;2023-07-13T07:11:44;10.38;;;5.53;;
19804;SDS011;10062;51.052;13.756;2023-07-13T07:14:16;11.80;;;5.63;;
19804;SDS011;10062;51.052;13.756;2023-07-13T07:16:49;7.43;;;3.42;;
19804;SDS011;10062;51.052;13.756;2023-07-13T07:19:21;7.50;;;2.97;;
19804;SDS011;10062;51.052;13.756;2023-07-13T07:21:52;10.43;;;2.78;;
19804;SDS011;10062;51.052;13.756;2023-07-13T07:24:24;6.53;;;3.10;;
19804;SDS011;10062;51.052;13.756;2023-07-13T07:26:58;5.30;;;2.35;;
19804;SDS011;10062;51.052;13.756;2023-07-13T07:29:29;11.48;;;2.95;;
19804;SDS011;10062;51.052;13.756;2023-07-13T07:32:01;8.25;;;2.42;;
19804;SDS011;10062;51.052;13.756;2023-07-13T07:34:33;6.38;;;2.55;;
19804;SDS011;10062;51.052;13.756;2023-07-13T07:37:04;10.85;;;3.15;;
19804;SDS011;10062;51.052;13.756;2023-07-13T07:39:36;5.05;;;2.33;;
19804;SDS011;10062;51.052;13.756;2023-07-13T07:42:09;6.75;;;2.40;;
19804;SDS011;10062;51.052;13.756;2023-07-13T07:44:42;7.55;;;2.30;;
19804;SDS011;10062;51.052;13.756;2023-07-13T07:47:14;3.42;;;2.15;;
19804;SDS011;10062;51.052;13.756;2023-07-13T07:49:46;5.15;;;2.17;;
19804;SDS011;10062;51.052;13.756;2023-07-13T07:52:17;8.65;;;2.50;;
19804;SDS011;10062;51.052;13.756;2023-07-13T07:54:49;8.68;;;2.33;;
19804;SDS011;10062;51.052;13.756;2023-07-13T07:57:22;6.63;;;1.80;;
19804;SDS011;10062;51.052;13.756;2023-07-13T07:59:54;4.10;;;1.70;;
19804;SDS011;10062;51.052;13.756;2023-07-13T08:02:25;7.97;;;2.03;;
19804;SDS011;10062;51.052;13.756;2023-07-13T08:04:57;4.20;;;1.77;;
19804;SDS011;10062;51.052;13.756;2023-07-13T08:07:29;4.40;;;1.90;;
19804;SDS011;10062;51.052;13.756;2023-07-13T08:10:02;3.22;;;1.80;;
19804;SDS011;10062;51.052;13.756;2023-07-13T08:12:35;4.53;;;2.03;;
19804;SDS011;10062;51.052;13.756;2023-07-13T08:15:09;10.18;;;2.22;;
19804;SDS011;10062;51.052;13.756;2023-07-13T08:17:42;6.28;;;1.70;;
19804;SDS011;10062;51.052;13.756;2023-07-13T08:20:14;6.40;;;1.75;;
19804;SDS011;10062;51.052;13.756;2023-07-13T08:22:45;5.07;;;1.92;;
19804;SDS011;10062;51.052;13.756;2023-07-13T08:25:17;6.53;;;1.67;;
19804;SDS011;10062;51.052;13.756;2023-07-13T08:27:51;3.83;;;1.60;;
19804;SDS011;10062;51.052;13.756;2023-07-13T08:30:22;3.92;;;1.70;;
19804;SDS011;10062;51.052;13.756;2023-07-13T08:32:54;4.25;;;1.60;;
19804;SDS011;10062;51.052;13.756;2023-07-13T08:35:26;4.40;;;1.90;;
19804;SDS011;10062;51.052;13.756;2023-07-13T08:37:57;3.63;;;1.77;;
19804;SDS011;10062;51.052;13.756;2023-07-13T08:40:30;4.25;;;1.92;;
19804;SDS011;10062;51.052;13.756;2023-07-13T08:43:03;5.97;;;1.92;;
19804;SDS011;10062;51.052;13.756;2023-07-13T08:45:43;6.80;;;2.00;;
19804;SDS011;10062;51.052;13.756;2023-07-13T08:48:18;3.75;;;1.70;;
19804;SDS011;10062;51.052;13.756;2023-07-13T08:50:54;6.75;;;2.20;;
19804;SDS011;10062;51.052;13.756;2023-07-13T08:53:30;4.95;;;1.80;;
19804;SDS011;10062;51.052;13.756;2023-07-13T08:56:09;5.32;;;2.10;;
19804;SDS011;10062;51.052;13.756;2023-07-13T08:58:50;4.18;;;1.90;;
19804;SDS011;10062;51.052;13.756;2023-07-13T09:01:28;6.32;;;1.83;;
19804;SDS011;10062;51.052;13.756;2023-07-13T09:04:15;4.80;;;1.65;;
19804;SDS011;10062;51.052;13.756;2023-07-13T09:06:55;6.53;;;2.50;;
19804;SDS011;10062;51.052;13.756;2023-07-13T09:09:36;6.60;;;3.08;;
19804;SDS011;10062;51.052;13.756;2023-07-13T09:12:17;5.68;;;1.63;;
19804;SDS011;10062;51.052;13.756;2023-07-13T09:14:56;5.47;;;1.60;;
19804;SDS011;10062;51.052;13.756;2023-07-13T09:17:31;4.68;;;1.60;;
19804;SDS011;10062;51.052;13.756;2023-07-13T09:20:10;7.05;;;2.03;;
19804;SDS011;10062;51.052;13.756;2023-07-13T09:22:49;4.15;;;1.98;;
19804;SDS011;10062;51.052;13.756;2023-07-13T09:25:24;3.08;;;1.65;;
19804;SDS011;10062;51.052;13.756;2023-07-13T09:28:01;5.32;;;2.05;;
19804;SDS011;10062;51.052;13.756;2023-07-13T09:30:45;5.47;;;2.05;;
19804;SDS011;10062;51.052;13.756;2023-07-13T09:33:23;4.70;;;1.90;;
19804;SDS011;10062;51.052;13.756;2023-07-13T09:35:55;6.25;;;1.85;;
19804;SDS011;10062;51.052;13.756;2023-07-13T09:38:29;5.55;;;2.30;;
19804;SDS011;10062;51.052;13.756;2023-07-13T09:41:04;4.28;;;2.05;;
19804;SDS011;10062;51.052;13.756;2023-07-13T09:46:45;4.32;;;2.10;;
19804;SDS011;10062;51.052;13.756;2023-07-13T09:49:18;5.50;;;1.80;;
19804;SDS011;10062;51.052;13.756;2023-07-13T09:51:58;6.45;;;1.80;;
19804;SDS011;10062;51.052;13.756;2023-07-13T09:54:32;4.13;;;1.65;;
19804;SDS011;10062;51.052;13.756;2023-07-13T09:57:11;3.67;;;1.90;;
19804;SDS011;10062;51.052;13.756;2023-07-13T09:59:45;4.43;;;1.70;;
19804;SDS011;10062;51.052;13.756;2023-07-13T10:02:25;10.00;;;2.42;;
19804;SDS011;10062;51.052;13.756;2023-07-13T10:04:59;3.92;;;2.00;;
19804;SDS011;10062;51.052;13.756;2023-07-13T10:07:37;3.83;;;1.60;;
19804;SDS011;10062;51.052;13.756;2023-07-13T10:10:13;3.80;;;1.60;;
19804;SDS011;10062;51.052;13.756;2023-07-13T10:12:46;5.22;;;1.83;;
19804;SDS011;10062;51.052;13.756;2023-07-13T10:15:19;5.38;;;1.95;;
19804;SDS011;10062;51.052;13.756;2023-07-13T10:17:54;2.88;;;1.25;;
19804;SDS011;10062;51.052;13.756;2023-07-13T10:20:28;3.90;;;1.67;;
19804;SDS011;10062;51.052;13.756;2023-07-13T10:23:02;5.82;;;1.83;;
19804;SDS011;10062;51.052;13.756;2023-07-13T10:25:39;6.22;;;1.70;;
19804;SDS011;10062;51.052;13.756;2023-07-13T10:28:19;6.25;;;1.50;;
19804;SDS011;10062;51.052;13.756;2023-07-13T10:30:58;7.28;;;1.70;;
19804;SDS011;10062;51.052;13.756;2023-07-13T10:33:33;7.45;;;2.20;;
19804;SDS011;10062;51.052;13.756;2023-07-13T10:36:10;5.45;;;1.73;;
19804;SDS011;10062;51.052;13.756;2023-07-13T10:38:45;5.75;;;2.17;;
19804;SDS011;10062;51.052;13.756;2023-07-13T10:41:20;6.05;;;1.60;;
19804;SDS011;10062;51.052;13.756;2023-07-13T10:43:54;7.30;;;1.95;;
19804;SDS011;10062;51.052;13.756;2023-07-13T10:46:28;4.07;;;1.80;;
19804;SDS011;10062;51.052;13.756;2023-07-13T10:49:02;4.20;;;1.75;;
19804;SDS011;10062;51.052;13.756;2023-07-13T10:51:38;4.72;;;1.42;;
19804;SDS011;10062;51.052;13.756;2023-07-13T10:54:14;5.40;;;1.80;;
19804;SDS011;10062;51.052;13.756;2023-07-13T10:56:53;4.35;;;1.92;;
19804;SDS011;10062;51.052;13.756;2023-07-13T10:59:39;3.97;;;1.45;;
19804;SDS011;10062;51.052;13.756;2023-07-13T11:02:15;7.38;;;1.50;;
19804;SDS011;10062;51.052;13.756;2023-07-13T11:04:55;11.27;;;2.22;;
19804;SDS011;10062;51.052;13.756;2023-07-13T11:07:29;3.28;;;1.05;;
19804;SDS011;10062;51.052;13.756;2023-07-13T11:10:03;3.15;;;1.63;;
19804;SDS011;10062;51.052;13.756;2023-07-13T11:12:49;3.10;;;1.40;;
19804;SDS011;10062;51.052;13.756;2023-07-13T11:15:27;4.10;;;1.50;;
19804;SDS011;10062;51.052;13.756;2023-07-13T11:18:20;4.18;;;1.55;;
19804;SDS011;10062;51.052;13.756;2023-07-13T11:21:12;4.38;;;1.50;;
19804;SDS011;10062;51.052;13.756;2023-07-13T11:23:47;2.42;;;1.38;;
19804;SDS011;10062;51.052;13.756;2023-07-13T11:29:20;9.20;;;2.03;;
19804;SDS011;10062;51.052;13.756;2023-07-13T11:31:57;6.45;;;1.70;;
19804;SDS011;10062;51.052;13.756;2023-07-13T11:34:33;6.57;;;2.10;;
19804;SDS011;10062;51.052;13.756;2023-07-13T11:37:12;5.72;;;1.80;;
19804;SDS011;10062;51.052;13.756;2023-07-13T11:39:46;4.00;;;1.40;;
19804;SDS011;10062;51.052;13.756;2023-07-13T11:42:21;6.20;;;2.03;;
19804;SDS011;10062;51.052;13.756;2023-07-13T11:44:53;6.25;;;1.67;;
19804;SDS011;10062;51.052;13.756;2023-07-13T11:47:26;5.60;;;2.00;;
19804;SDS011;10062;51.052;13.756;2023-07-13T11:49:59;3.33;;;1.65;;
19804;SDS011;10062;51.052;13.756;2023-07-13T11:52:32;5.45;;;1.83;;
19804;SDS011;10062;51.052;13.756;2023-07-13T11:55:13;2.80;;;1.50;;
19804;SDS011;10062;51.052;13.756;2023-07-13T11:57:48;5.57;;;1.42;;
19804;SDS011;10062;51.052;13.756;2023-07-13T12:00:23;3.78;;;1.83;;
19804;SDS011;10062;51.052;13.756;2023-07-13T12:02:57;5.32;;;2.03;;
19804;SDS011;10062;51.052;13.756;2023-07-13T12:05:32;5.78;;;1.60;;
19804;SDS011;10062;51.052;13.756;2023-07-13T12:08:10;4.00;;;1.60;;
19804;SDS011;10062;51.052;13.756;2023-07-13T12:10:42;3.50;;;1.27;;
19804;SDS011;10062;51.052;13.756;2023-07-13T12:13:17;4.45;;;1.63;;
19804;SDS011;10062;51.052;13.756;2023-07-13T12:15:49;7.50;;;2.20;;
19804;SDS011;10062;51.052;13.756;2023-07-13T12:18:22;4.47;;;1.60;;
19804;SDS011;10062;51.052;13.756;2023-07-13T12:21:00;4.50;;;1.60;;
19804;SDS011;10062;51.052;13.756;2023-07-13T12:23:34;6.07;;;1.92;;
19804;SDS011;10062;51.052;13.756;2023-07-13T12:26:06;5.03;;;1.77;;
19804;SDS011;10062;51.052;13.756;2023-07-13T12:28:44;5.95;;;1.92;;
19804;SDS011;10062;51.052;13.756;2023-07-13T12:31:32;5.57;;;1.48;;
19804;SDS011;10062;51.052;13.756;2023-07-13T12:34:09;4.80;;;1.90;;
19804;SDS011;10062;51.052;13.756;2023-07-13T12:36:45;5.03;;;2.78;;
19804;SDS011;10062;51.052;13.756;2023-07-13T12:39:22;5.85;;;1.90;;
19804;SDS011;10062;51.052;13.756;2023-07-13T12:42:00;4.18;;;1.75;;
19804;SDS011;10062;51.052;13.756;2023-07-13T12:44:45;4.57;;;2.00;;
19804;SDS011;10062;51.052;13.756;2023-07-13T12:47:19;4.55;;;1.77;;
19804;SDS011;10062;51.052;13.756;2023-07-13T12:49:53;8.00;;;1.90;;
19804;SDS011;10062;51.052;13.756;2023-07-13T12:52:28;5.85;;;1.85;;
19804;SDS011;10062;51.052;13.756;2023-07-13T12:55:05;5.65;;;2.20;;
19804;SDS011;10062;51.052;13.756;2023-07-13T12:57:45;6.43;;;1.55;;
19804;SDS011;10062;51.052;13.756;2023-07-13T13:00:22;2.65;;;1.52;;
19804;SDS011;10062;51.052;13.756;2023-07-13T13:02:56;4.78;;;1.30;;
19804;SDS011;10062;51.052;13.756;2023-07-13T13:05:31;4.65;;;1.50;;
19804;SDS011;10062;51.052;13.756;2023-07-13T13:08:04;5.90;;;2.05;;
19804;SDS011;10062;51.052;13.756;2023-07-13T13:10:37;3.83;;;1.52;;
19804;SDS011;10062;51.052;13.756;2023-07-13T13:13:09;3.30;;;1.80;;
19804;SDS011;10062;51.052;13.756;2023-07-13T13:15:42;5.50;;;1.85;;
19804;SDS011;10062;51.052;13.756;2023-07-13T13:18:17;3.22;;;1.27;;
19804;SDS011;10062;51.052;13.756;2023-07-13T13:20:49;4.03;;;1.65;;
19804;SDS011;10062;51.052;13.756;2023-07-13T13:23:22;5.43;;;1.42;;
19804;SDS011;10062;51.052;13.756;2023-07-13T13:25:56;4.25;;;1.50;;
19804;SDS011;10062;51.052;13.756;2023-07-13T13:28:29;4.10;;;1.38;;
19804;SDS011;10062;51.052;13.756;2023-07-13T13:31:00;3.55;;;1.40;;
19804;SDS011;10062;51.052;13.756;2023-07-13T13:33:32;3.70;;;1.40;;
19804;SDS011;10062;51.052;13.756;2023-07-13T13:36:04;6.10;;;1.45;;
19804;SDS011;10062;51.052;13.756;2023-07-13T13:38:36;4.55;;;1.63;;
19804;SDS011;10062;51.052;13.756;2023-07-13T13:41:10;5.03;;;1.48;;
19804;SDS011;10062;51.052;13.756;2023-07-13T13:43:43;5.50;;;1.50;;
19804;SDS011;10062;51.052;13.756;2023-07-13T13:46:16;5.47;;;1.35;;
19804;SDS011;10062;51.052;13.756;2023-07-13T13:48:49;3.33;;;1.15;;
19804;SDS011;10062;51.052;13.756;2023-07-13T13:51:22;2.92;;;1.33;;
19804;SDS011;10062;51.052;13.756;2023-07-13T13:53:55;6.60;;;1.55;;
19804;SDS011;10062;51.052;13.756;2023-07-13T13:56:29;4.50;;;1.45;;
19804;SDS011;10062;51.052;13.756;2023-07-13T13:59:00;5.80;;;1.63;;
19804;SDS011;10062;51.052;13.756;2023-07-13T14:01:32;8.68;;;1.52;;
19804;SDS011;10062;51.052;13.756;2023-07-13T14:04:04;3.70;;;1.63;;
19804;SDS011;10062;51.052;13.756;2023-07-13T14:06:36;6.72;;;1.63;;
19804;SDS011;10062;51.052;13.756;2023-07-13T14:09:08;3.83;;;1.50;;
19804;SDS011;10062;51.052;13.756;2023-07-13T14:11:43;5.10;;;2.03;;
19804;SDS011;10062;51.052;13.756;2023-07-13T14:14:16;5.38;;;1.85;;
19804;SDS011;10062;51.052;13.756;2023-07-13T14:16:53;3.38;;;1.20;;
19804;SDS011;10062;51.052;13.756;2023-07-13T14:19:27;6.15;;;1.88;;
19804;SDS011;10062;51.052;13.756;2023-07-13T14:21:59;5.13;;;1.63;;
19804;SDS011;10062;51.052;13.756;2023-07-13T14:24:31;6.50;;;2.10;;
19804;SDS011;10062;51.052;13.756;2023-07-13T14:27:04;5.85;;;1.50;;
19804;SDS011;10062;51.052;13.756;2023-07-13T14:29:36;6.20;;;2.05;;
19804;SDS011;10062;51.052;13.756;2023-07-13T14:32:09;5.32;;;1.60;;
19804;SDS011;10062;51.052;13.756;2023-07-13T14:34:42;7.00;;;1.98;;
19804;SDS011;10062;51.052;13.756;2023-07-13T14:37:14;4.50;;;1.42;;
19804;SDS011;10062;51.052;13.756;2023-07-13T14:39:46;6.32;;;1.73;;
19804;SDS011;10062;51.052;13.756;2023-07-13T14:42:22;9.60;;;2.78;;
19804;SDS011;10062;51.052;13.756;2023-07-13T14:44:54;3.90;;;1.60;;
19804;SDS011;10062;51.052;13.756;2023-07-13T14:47:26;5.60;;;1.55;;
19804;SDS011;10062;51.052;13.756;2023-07-13T14:49:58;3.90;;;1.83;;
19804;SDS011;10062;51.052;13.756;2023-07-13T14:52:30;5.50;;;1.60;;
19804;SDS011;10062;51.052;13.756;2023-07-13T14:55:02;5.78;;;1.88;;
19804;SDS011;10062;51.052;13.756;2023-07-13T14:57:35;7.13;;;1.85;;
19804;SDS011;10062;51.052;13.756;2023-07-13T15:00:17;5.57;;;1.25;;
19804;SDS011;10062;51.052;13.756;2023-07-13T15:02:52;5.63;;;1.52;;
19804;SDS011;10062;51.052;13.756;2023-07-13T15:05:26;4.18;;;1.50;;
19804;SDS011;10062;51.052;13.756;2023-07-13T15:08:00;4.95;;;1.75;;
19804;SDS011;10062;51.052;13.756;2023-07-13T15:10:33;6.28;;;2.05;;
19804;SDS011;10062;51.052;13.756;2023-07-13T15:13:14;6.75;;;1.35;;
19804;SDS011;10062;51.052;13.756;2023-07-13T15:15:49;2.35;;;1.30;;
19804;SDS011;10062;51.052;13.756;2023-07-13T15:18:23;4.40;;;1.55;;
19804;SDS011;10062;51.052;13.756;2023-07-13T15:20:57;6.10;;;1.45;;